LATI/TIA METAR and TAF weather

Enter ICAO airport designator
Station Type Date Time Source
LATI METAR 2019/06/26 16:20 UTC NOAA

LATI 261620Z 34005KT CAVOK 34/20 Q1016 NOSIG


Station Type Date Time Source
LATI Decoded METAR 2019/06/26 16:20 UTC NOAA

Tirana, Albania (LATI) 41-20N 019-47E 90M
Jun 26, 2019 - 12:20 PM EDT / 2019.06.26 1620 UTC
Wind: from the NNW (340 degrees) at 6 MPH (5 KT):0
Visibility: greater than 7 mile(s):0
Temperature: 93 F (34 C)
Heat index: 96.8 F (36.0 C):1
Dew Point: 68 F (20 C)
Relative Humidity: 43%
Pressure (altimeter): 30.00 in. Hg (1016 hPa)
ob: LATI 261620Z 34005KT CAVOK 34/20 Q1016 NOSIG
cycle: 16

Station Type Date Time Source
LATI TAF 2019/06/26 12:31 UTC NOAA

TAF LATI 261100Z 2612/2712 34010KT CAVOK TX35/2612Z TN21/2704Z
BECMG 2617/2619 VRB03KT

Example: see airport list